createdAt,value
2022-09-16T00:01:12.783Z,99.90
2022-09-16T00:03:42.666Z,99.90
2022-09-16T00:06:18.861Z,99.90
2022-09-16T00:08:47.663Z,99.90
2022-09-16T00:11:16.264Z,99.90
2022-09-16T00:13:44.489Z,99.90
2022-09-16T00:16:15.407Z,99.90
2022-09-16T00:18:44.930Z,99.90
2022-09-16T00:21:13.646Z,99.90
2022-09-16T00:23:41.858Z,99.90
2022-09-16T00:26:10.193Z,99.90
2022-09-16T00:28:38.227Z,99.90
2022-09-16T00:31:06.872Z,99.90
2022-09-16T00:33:35.166Z,99.90
2022-09-16T00:36:09.713Z,99.90
2022-09-16T00:38:38.347Z,99.90
2022-09-16T00:41:07.429Z,99.90
2022-09-16T00:43:53.223Z,99.90
2022-09-16T00:46:26.566Z,99.90
2022-09-16T00:48:55.055Z,99.90
2022-09-16T00:51:25.390Z,99.90
2022-09-16T00:53:59.893Z,99.90
2022-09-16T00:56:30.641Z,99.90
2022-09-16T00:59:03.414Z,99.90
2022-09-16T01:01:32.165Z,99.90
2022-09-16T01:04:04.385Z,99.90
2022-09-16T01:06:37.552Z,99.90
2022-09-16T01:09:06.157Z,99.90
2022-09-16T01:11:34.399Z,99.90
2022-09-16T01:14:18.192Z,99.90
2022-09-16T01:16:58.197Z,99.90
2022-09-16T01:19:44.327Z,99.90
2022-09-16T01:22:29.063Z,99.90
2022-09-16T01:25:07.125Z,99.90
2022-09-16T01:28:07.699Z,99.90
2022-09-16T01:31:03.142Z,99.90
2022-09-16T01:33:41.388Z,99.90
2022-09-16T01:36:29.262Z,99.90
2022-09-16T01:39:08.129Z,99.90
2022-09-16T01:41:46.723Z,99.90
2022-09-16T01:44:26.860Z,99.90
2022-09-16T01:47:03.530Z,99.90
2022-09-16T01:49:42.007Z,99.90
2022-09-16T01:52:21.504Z,99.90
2022-09-16T01:54:54.624Z,99.90
2022-09-16T01:57:29.117Z,99.90
2022-09-16T02:00:03.110Z,99.90
2022-09-16T02:02:39.946Z,99.90
2022-09-16T02:05:14.294Z,99.90
2022-09-16T02:07:47.507Z,99.90
2022-09-16T02:10:23.108Z,99.90
2022-09-16T02:12:53.728Z,99.90
2022-09-16T02:15:26.007Z,99.90
2022-09-16T02:18:01.066Z,99.90
2022-09-16T02:20:32.715Z,99.90
2022-09-16T02:23:05.770Z,99.90
2022-09-16T02:25:39.070Z,99.90
2022-09-16T02:28:13.258Z,99.90
2022-09-16T02:30:45.970Z,99.90
2022-09-16T02:33:17.937Z,99.90
2022-09-16T02:35:50.062Z,99.90
2022-09-16T02:38:23.772Z,99.90
2022-09-16T02:40:55.384Z,99.90
2022-09-16T02:43:24.493Z,99.90
2022-09-16T02:46:01.094Z,99.90
2022-09-16T02:48:41.093Z,99.90
2022-09-16T02:51:22.701Z,99.90
2022-09-16T02:53:56.281Z,99.90
2022-09-16T02:56:30.583Z,99.90
2022-09-16T02:58:58.801Z,99.90
2022-09-16T03:01:29.704Z,99.90
2022-09-16T03:03:59.244Z,99.90
2022-09-16T03:06:28.954Z,99.90
2022-09-16T03:09:01.071Z,99.90
2022-09-16T03:11:53.846Z,99.90
2022-09-16T03:14:47.700Z,99.90
2022-09-16T03:17:32.217Z,99.90
2022-09-16T03:20:07.112Z,99.90
2022-09-16T03:22:48.629Z,99.90
2022-09-16T03:25:26.715Z,99.90
2022-09-16T03:28:01.648Z,99.90
2022-09-16T03:30:33.357Z,99.90
2022-09-16T03:33:06.753Z,99.90
2022-09-16T03:35:43.714Z,99.90
2022-09-16T03:38:13.462Z,99.90
2022-09-16T03:40:43.232Z,99.90
2022-09-16T03:43:13.093Z,99.90
2022-09-16T03:45:42.764Z,99.90
2022-09-16T03:48:11.830Z,99.90
2022-09-16T03:50:41.407Z,99.90
2022-09-16T03:53:09.526Z,99.90
2022-09-16T03:55:37.639Z,99.90
2022-09-16T03:58:05.733Z,99.90
2022-09-16T04:00:34.127Z,99.90
2022-09-16T04:03:02.581Z,99.90
2022-09-16T04:05:31.111Z,99.90
2022-09-16T04:08:00.608Z,99.90
2022-09-16T04:10:28.908Z,99.90
2022-09-16T04:12:58.961Z,99.90
2022-09-16T04:15:27.301Z,99.90
2022-09-16T04:17:56.264Z,99.90
2022-09-16T04:20:24.906Z,99.90
2022-09-16T04:22:53.393Z,99.90
2022-09-16T04:25:22.931Z,99.90
2022-09-16T04:27:51.031Z,99.90
2022-09-16T04:30:20.492Z,99.90
2022-09-16T04:32:48.573Z,99.90
2022-09-16T04:35:19.467Z,99.90
2022-09-16T04:37:47.665Z,99.90
2022-09-16T04:40:16.435Z,99.90
2022-09-16T04:42:51.252Z,99.90
2022-09-16T04:45:19.730Z,99.90
2022-09-16T04:47:48.015Z,99.90
2022-09-16T04:50:16.210Z,99.90
2022-09-16T04:52:44.476Z,99.90
2022-09-16T04:55:12.623Z,99.90
2022-09-16T04:57:42.385Z,99.90
2022-09-16T05:00:14.898Z,99.90
2022-09-16T05:02:45.824Z,99.90
2022-09-16T05:05:14.701Z,99.90
2022-09-16T05:07:42.784Z,99.90
2022-09-16T05:10:11.187Z,99.90
2022-09-16T05:12:39.514Z,99.90
2022-09-16T05:15:09.424Z,99.90
2022-09-16T05:17:50.749Z,99.90
2022-09-16T05:20:19.218Z,99.90
2022-09-16T05:22:50.216Z,99.90
2022-09-16T05:25:18.564Z,99.90
2022-09-16T05:27:47.202Z,99.90
2022-09-16T05:30:17.294Z,99.90
2022-09-16T05:32:46.822Z,99.90
2022-09-16T05:35:15.302Z,99.90
2022-09-16T05:37:43.577Z,99.90
2022-09-16T05:40:12.246Z,99.90
2022-09-16T05:42:40.545Z,99.90
2022-09-16T05:45:09.899Z,99.90
2022-09-16T05:47:39.330Z,99.90
2022-09-16T05:50:09.897Z,99.90
2022-09-16T05:52:38.497Z,99.90
2022-09-16T05:55:09.573Z,99.90
2022-09-16T05:57:37.773Z,99.90
2022-09-16T06:00:07.212Z,99.90
2022-09-16T06:02:38.501Z,99.90
2022-09-16T06:05:11.926Z,99.90
2022-09-16T06:07:40.404Z,99.90
2022-09-16T06:10:09.952Z,99.90
2022-09-16T06:12:43.277Z,99.90
2022-09-16T06:15:13.031Z,99.90
2022-09-16T06:17:41.188Z,99.90
2022-09-16T06:20:14.751Z,99.90
2022-09-16T06:22:42.929Z,99.90
2022-09-16T06:25:13.022Z,99.90
2022-09-16T06:27:41.315Z,99.90
2022-09-16T06:30:10.330Z,99.90
2022-09-16T06:32:38.587Z,99.90
2022-09-16T06:35:07.995Z,99.90
2022-09-16T06:37:37.681Z,99.90
2022-09-16T06:40:07.101Z,99.90
2022-09-16T06:42:35.466Z,99.90
2022-09-16T06:45:05.472Z,99.90
2022-09-16T06:47:34.001Z,99.90
2022-09-16T06:50:02.441Z,99.90
2022-09-16T06:52:30.537Z,99.90
2022-09-16T06:55:00.775Z,99.90
2022-09-16T06:57:28.861Z,99.90
2022-09-16T06:59:57.027Z,99.90
2022-09-16T07:02:25.122Z,99.90
2022-09-16T07:04:53.454Z,99.90
2022-09-16T07:07:21.855Z,99.90
2022-09-16T07:09:49.934Z,99.90
2022-09-16T07:12:19.856Z,99.90
2022-09-16T07:14:48.045Z,99.90
2022-09-16T07:17:16.324Z,99.90
2022-09-16T07:19:44.641Z,99.90
2022-09-16T07:22:13.027Z,99.90
2022-09-16T07:24:41.257Z,99.90
2022-09-16T07:27:09.382Z,99.90
2022-09-16T07:29:39.110Z,99.90
2022-09-16T07:32:07.456Z,99.90
2022-09-16T07:34:35.697Z,99.90
2022-09-16T07:37:03.835Z,99.90
2022-09-16T07:39:31.932Z,99.90
2022-09-16T07:42:05.886Z,99.90
2022-09-16T07:44:34.493Z,99.90
2022-09-16T07:47:03.994Z,99.90
2022-09-16T07:49:32.106Z,99.90
2022-09-16T07:52:00.400Z,99.90
2022-09-16T07:54:28.606Z,99.90
2022-09-16T07:56:56.786Z,99.90
2022-09-16T07:59:24.868Z,99.90
2022-09-16T08:01:53.013Z,99.90
2022-09-16T08:04:22.820Z,99.90
2022-09-16T08:06:50.969Z,99.90
2022-09-16T08:09:39.794Z,99.90
2022-09-16T08:12:10.729Z,99.90
2022-09-16T08:14:39.257Z,99.90
2022-09-16T08:17:13.574Z,99.90
2022-09-16T08:19:43.168Z,99.90
2022-09-16T08:22:11.379Z,99.90
2022-09-16T08:24:39.961Z,99.90
2022-09-16T08:27:08.059Z,99.90
2022-09-16T08:29:36.234Z,99.90
2022-09-16T08:32:04.339Z,99.90
2022-09-16T08:34:32.451Z,99.90
2022-09-16T08:37:01.954Z,99.90
2022-09-16T08:39:30.071Z,99.90
2022-09-16T08:42:33.631Z,99.90
2022-09-16T08:45:14.221Z,99.90
2022-09-16T08:47:51.248Z,99.90
2022-09-16T08:50:23.677Z,99.90
2022-09-16T08:52:55.651Z,99.90
2022-09-16T08:55:31.397Z,99.90
2022-09-16T08:58:03.675Z,99.90
2022-09-16T09:00:32.605Z,99.90
2022-09-16T09:03:08.336Z,99.90
2022-09-16T09:05:45.153Z,99.90
2022-09-16T09:08:33.700Z,99.90
2022-09-16T09:11:07.214Z,99.90
2022-09-16T09:13:58.970Z,99.90
2022-09-16T09:16:38.590Z,99.90
2022-09-16T09:19:21.759Z,99.90
2022-09-16T09:21:58.413Z,99.90
2022-09-16T09:24:39.382Z,99.90
2022-09-16T09:27:16.368Z,99.90
2022-09-16T09:30:02.130Z,99.90
2022-09-16T09:32:49.857Z,99.90
2022-09-16T09:35:30.233Z,99.90
2022-09-16T09:38:28.405Z,99.90
2022-09-16T09:41:01.106Z,99.90
2022-09-16T09:43:33.883Z,99.90
2022-09-16T09:46:06.532Z,99.90
2022-09-16T09:48:40.212Z,99.90
2022-09-16T09:51:16.738Z,99.90
2022-09-16T09:53:49.862Z,99.90
2022-09-16T09:56:22.805Z,99.90
2022-09-16T09:59:01.949Z,99.90
2022-09-16T10:01:31.999Z,99.90
2022-09-16T10:04:00.461Z,99.90
2022-09-16T10:06:31.062Z,99.90
2022-09-16T10:08:59.929Z,99.90
2022-09-16T10:11:32.151Z,99.90
2022-09-16T10:14:01.434Z,99.90
2022-09-16T10:16:32.051Z,99.90
2022-09-16T10:19:04.359Z,99.90
2022-09-16T10:21:45.812Z,99.90
2022-09-16T10:24:30.632Z,99.90
2022-09-16T10:27:01.641Z,99.90
2022-09-16T10:29:30.384Z,99.80
2022-09-16T10:32:04.047Z,99.60
2022-09-16T10:34:35.107Z,99.60
2022-09-16T10:37:05.976Z,99.40
2022-09-16T10:39:34.699Z,99.10
2022-09-16T10:42:06.691Z,98.90
2022-09-16T10:44:38.033Z,98.80
2022-09-16T10:47:09.307Z,98.90
2022-09-16T10:49:44.448Z,98.90
2022-09-16T10:52:19.992Z,98.80
2022-09-16T10:54:48.871Z,98.70
2022-09-16T10:57:25.336Z,98.50
2022-09-16T11:00:01.934Z,98.30
2022-09-16T11:02:50.006Z,98.30
2022-09-16T11:05:26.349Z,98.40
2022-09-16T11:08:01.799Z,98.50
2022-09-16T11:10:38.850Z,98.30
2022-09-16T11:13:29.125Z,98.20
2022-09-16T11:16:12.206Z,98.00
2022-09-16T11:18:55.360Z,97.80
2022-09-16T11:21:56.007Z,97.60
2022-09-16T11:24:44.687Z,97.70
2022-09-16T11:27:23.249Z,97.70
2022-09-16T11:30:02.338Z,97.60
2022-09-16T11:32:41.857Z,97.80
2022-09-16T11:35:30.656Z,97.70
2022-09-16T11:38:05.353Z,97.80
2022-09-16T11:40:44.361Z,98.10
2022-09-16T11:43:38.271Z,98.40
2022-09-16T11:46:16.055Z,98.70
2022-09-16T11:49:02.396Z,98.90
2022-09-16T11:51:45.852Z,99.30
2022-09-16T11:54:31.089Z,99.60
2022-09-16T11:57:01.729Z,99.90
2022-09-16T11:59:37.521Z,99.90
2022-09-16T12:02:15.859Z,99.90
2022-09-16T12:04:50.062Z,99.90
2022-09-16T12:07:25.342Z,99.90
2022-09-16T12:09:59.521Z,99.90
2022-09-16T12:12:33.485Z,99.90
2022-09-16T12:15:06.157Z,99.90
2022-09-16T12:17:40.134Z,99.90
2022-09-16T12:20:14.878Z,99.90
2022-09-16T12:22:46.621Z,99.90
2022-09-16T12:25:18.800Z,99.90
2022-09-16T12:27:52.520Z,99.90
2022-09-16T12:30:23.678Z,99.90
2022-09-16T12:33:06.956Z,99.90
2022-09-16T12:35:38.964Z,99.90
2022-09-16T12:38:18.507Z,99.90
2022-09-16T12:41:02.877Z,99.90
2022-09-16T12:44:06.449Z,99.90
2022-09-16T12:47:05.599Z,99.90
2022-09-16T12:49:58.333Z,99.90
2022-09-16T12:52:54.728Z,99.90
2022-09-16T12:55:46.312Z,99.90
2022-09-16T12:58:53.915Z,99.90
2022-09-16T13:01:25.626Z,99.90
2022-09-16T13:03:57.953Z,99.90
2022-09-16T13:06:33.740Z,99.90
2022-09-16T13:09:16.805Z,99.90
2022-09-16T13:12:32.000Z,99.90
2022-09-16T13:14:48.931Z,99.90
2022-09-16T13:17:27.668Z,99.90
2022-09-16T13:19:57.709Z,99.90
2022-09-16T13:22:31.879Z,99.90
2022-09-16T13:25:12.489Z,99.90
2022-09-16T13:27:42.440Z,99.90
2022-09-16T13:30:18.070Z,99.90
2022-09-16T13:32:58.309Z,99.90
2022-09-16T13:35:38.457Z,99.90
2022-09-16T13:38:26.739Z,99.90
2022-09-16T13:40:57.439Z,99.90
2022-09-16T13:43:50.103Z,99.90
2022-09-16T13:46:35.491Z,99.90
2022-09-16T13:49:24.099Z,99.90
2022-09-16T13:51:53.297Z,99.90
2022-09-16T13:54:29.525Z,99.90
2022-09-16T13:57:16.607Z,99.90
2022-09-16T13:59:59.485Z,99.90
2022-09-16T14:02:43.679Z,99.90
2022-09-16T14:05:33.724Z,99.90
2022-09-16T14:08:09.704Z,99.90
2022-09-16T14:10:48.023Z,99.90
2022-09-16T14:13:19.366Z,99.90
2022-09-16T14:15:50.621Z,99.90
2022-09-16T14:18:22.065Z,99.90
2022-09-16T14:20:59.907Z,99.90
2022-09-16T14:23:28.981Z,99.90
2022-09-16T14:25:58.719Z,99.90
2022-09-16T14:28:28.559Z,99.90
2022-09-16T14:30:58.635Z,99.90
2022-09-16T14:33:32.004Z,99.90
2022-09-16T14:36:02.329Z,99.90
2022-09-16T14:38:45.696Z,99.90
2022-09-16T14:41:25.736Z,99.90
2022-09-16T14:43:57.660Z,99.90
2022-09-16T14:46:26.765Z,99.90
2022-09-16T14:48:55.132Z,99.90
2022-09-16T14:51:27.501Z,99.90
2022-09-16T14:54:13.625Z,99.90
2022-09-16T14:56:43.729Z,99.90
2022-09-16T14:59:13.990Z,99.90
2022-09-16T15:01:43.300Z,99.90
2022-09-16T15:04:18.602Z,99.90
2022-09-16T15:06:52.092Z,99.90
2022-09-16T15:09:27.221Z,99.90
2022-09-16T15:11:59.580Z,99.90
2022-09-16T15:14:28.851Z,99.90
2022-09-16T15:17:02.471Z,99.90
2022-09-16T15:19:35.028Z,99.90
2022-09-16T15:22:03.801Z,99.90
2022-09-16T15:24:34.160Z,99.90
2022-09-16T15:27:04.426Z,99.90
2022-09-16T15:29:35.141Z,99.90
2022-09-16T15:32:17.976Z,99.90
2022-09-16T15:34:46.556Z,99.90
2022-09-16T15:37:35.609Z,99.90
2022-09-16T15:40:11.872Z,99.90
2022-09-16T15:42:42.130Z,99.90
2022-09-16T15:45:19.805Z,99.90
2022-09-16T15:47:55.289Z,99.90
2022-09-16T15:50:25.855Z,99.90
2022-09-16T15:53:00.075Z,99.90
2022-09-16T15:55:33.331Z,99.90
2022-09-16T15:58:08.571Z,99.90
2022-09-16T16:01:04.789Z,99.90
2022-09-16T16:03:38.736Z,99.90
2022-09-16T16:06:07.406Z,99.90
2022-09-16T16:08:46.963Z,99.90
2022-09-16T16:11:17.060Z,99.90
2022-09-16T16:13:46.827Z,99.90
2022-09-16T16:16:16.975Z,99.90
2022-09-16T16:18:46.928Z,99.90
2022-09-16T16:21:17.525Z,99.90
2022-09-16T16:23:45.744Z,99.90
2022-09-16T16:26:14.017Z,99.90
2022-09-16T16:28:42.140Z,99.90
2022-09-16T16:31:17.931Z,99.90
2022-09-16T16:33:47.840Z,99.90
2022-09-16T16:36:17.624Z,99.90
2022-09-16T16:38:46.480Z,99.90
2022-09-16T16:41:20.162Z,99.90
2022-09-16T16:43:48.382Z,99.90
2022-09-16T16:46:18.563Z,99.90
2022-09-16T16:48:47.103Z,99.90
2022-09-16T16:51:15.300Z,99.90
2022-09-16T16:53:43.564Z,99.90
2022-09-16T16:56:15.558Z,99.90
2022-09-16T16:58:44.110Z,99.90
2022-09-16T17:01:15.062Z,99.90
2022-09-16T17:03:47.632Z,99.90
2022-09-16T17:06:16.399Z,99.90
2022-09-16T17:08:44.537Z,99.90
2022-09-16T17:11:14.068Z,99.90
2022-09-16T17:13:43.531Z,99.90
2022-09-16T17:16:14.308Z,99.90
2022-09-16T17:18:44.865Z,99.90
2022-09-16T17:21:14.841Z,99.90
2022-09-16T17:23:43.109Z,99.90
2022-09-16T17:26:11.728Z,99.90
2022-09-16T17:28:41.316Z,99.90
2022-09-16T17:31:11.166Z,99.90
2022-09-16T17:33:39.588Z,99.90
2022-09-16T17:36:10.981Z,99.90
2022-09-16T17:38:39.380Z,99.90
2022-09-16T17:41:08.933Z,99.90
2022-09-16T17:43:37.834Z,99.90
2022-09-16T17:46:08.295Z,99.90
2022-09-16T17:48:38.160Z,99.90
2022-09-16T17:51:06.462Z,99.90
2022-09-16T17:53:36.456Z,99.90
2022-09-16T17:56:06.661Z,99.90
2022-09-16T17:58:35.501Z,99.90
2022-09-16T18:01:08.474Z,99.90
2022-09-16T18:03:37.345Z,99.90
2022-09-16T18:06:10.177Z,99.90
2022-09-16T18:08:40.434Z,99.90
2022-09-16T18:11:10.263Z,99.90
2022-09-16T18:13:39.002Z,99.90
2022-09-16T18:16:10.502Z,99.90
2022-09-16T18:18:40.406Z,99.90
2022-09-16T18:21:10.542Z,99.90
2022-09-16T18:23:40.181Z,99.90
2022-09-16T18:26:09.608Z,99.90
2022-09-16T18:28:58.284Z,99.90
2022-09-16T18:31:26.324Z,99.90
2022-09-16T18:33:55.343Z,99.90
2022-09-16T18:36:25.540Z,99.90
2022-09-16T18:38:57.506Z,99.90
2022-09-16T18:41:27.757Z,99.90
2022-09-16T18:43:57.649Z,99.90
2022-09-16T18:46:27.406Z,99.90
2022-09-16T18:48:56.234Z,99.90
2022-09-16T18:51:26.021Z,99.90
2022-09-16T18:53:57.880Z,99.90
2022-09-16T18:56:28.148Z,99.90
2022-09-16T18:59:21.571Z,99.90
2022-09-16T19:01:50.860Z,99.90
2022-09-16T19:04:20.978Z,99.90
2022-09-16T19:06:51.164Z,99.90
2022-09-16T19:09:22.239Z,99.90
2022-09-16T19:11:52.809Z,99.90
2022-09-16T19:14:24.208Z,99.90
2022-09-16T19:16:52.495Z,99.90
2022-09-16T19:19:21.457Z,99.90
2022-09-16T19:21:49.969Z,99.90
2022-09-16T19:24:21.405Z,99.90
2022-09-16T19:26:51.239Z,99.90
2022-09-16T19:29:19.657Z,99.90
2022-09-16T19:31:50.074Z,99.90
2022-09-16T19:34:18.222Z,99.90
2022-09-16T19:36:46.633Z,99.90
2022-09-16T19:39:15.478Z,99.90
2022-09-16T19:41:45.212Z,99.90
2022-09-16T19:44:15.660Z,99.90
2022-09-16T19:46:46.882Z,99.90
2022-09-16T19:49:17.578Z,99.90
2022-09-16T19:51:45.963Z,99.90
2022-09-16T19:54:14.145Z,99.90
2022-09-16T19:56:48.178Z,99.90
2022-09-16T19:59:18.034Z,99.90
2022-09-16T20:01:46.254Z,99.90
2022-09-16T20:04:14.710Z,99.90
2022-09-16T20:06:43.737Z,99.90
2022-09-16T20:09:13.209Z,99.90
2022-09-16T20:11:43.698Z,99.90
2022-09-16T20:14:16.323Z,99.90
2022-09-16T20:16:44.797Z,99.90
2022-09-16T20:19:16.696Z,99.90
2022-09-16T20:21:45.296Z,99.90
2022-09-16T20:24:16.288Z,99.90
2022-09-16T20:26:44.524Z,99.90
2022-09-16T20:29:14.104Z,99.90
2022-09-16T20:31:42.547Z,99.90
2022-09-16T20:34:14.815Z,99.90
2022-09-16T20:36:44.484Z,99.90
2022-09-16T20:39:13.566Z,99.90
2022-09-16T20:41:42.694Z,99.90
2022-09-16T20:44:15.761Z,99.90
2022-09-16T20:46:44.304Z,99.90
2022-09-16T20:49:15.951Z,99.90
2022-09-16T20:51:44.603Z,99.90
2022-09-16T20:54:15.593Z,99.90
2022-09-16T20:56:45.537Z,99.90
2022-09-16T20:59:17.176Z,99.90
2022-09-16T21:01:45.769Z,99.90
2022-09-16T21:04:15.420Z,99.90
2022-09-16T21:06:44.027Z,99.90
2022-09-16T21:09:14.194Z,99.90
2022-09-16T21:11:44.506Z,99.90
2022-09-16T21:14:15.139Z,99.90
2022-09-16T21:16:46.114Z,99.90
2022-09-16T21:19:15.132Z,99.90
2022-09-16T21:21:46.336Z,99.90
2022-09-16T21:24:15.746Z,99.90
2022-09-16T21:26:44.488Z,99.90
2022-09-16T21:29:15.273Z,99.90
2022-09-16T21:31:45.020Z,99.90
2022-09-16T21:34:15.315Z,99.90
2022-09-16T21:36:44.596Z,99.90
2022-09-16T21:39:15.487Z,99.90
2022-09-16T21:41:44.451Z,99.90
2022-09-16T21:44:13.569Z,99.90
2022-09-16T21:46:46.345Z,99.90
2022-09-16T21:49:23.196Z,99.90
2022-09-16T21:51:52.385Z,99.90
2022-09-16T21:54:21.327Z,99.90
2022-09-16T21:56:50.395Z,99.90
2022-09-16T21:59:19.741Z,99.90
2022-09-16T22:01:50.608Z,99.90
2022-09-16T22:04:20.677Z,99.90
2022-09-16T22:06:49.786Z,99.90
2022-09-16T22:09:18.677Z,99.90
2022-09-16T22:11:47.045Z,99.90
2022-09-16T22:14:15.431Z,99.90
2022-09-16T22:16:43.533Z,99.90
2022-09-16T22:19:15.783Z,99.90
2022-09-16T22:21:45.398Z,99.90
2022-09-16T22:24:16.155Z,99.90
2022-09-16T22:26:44.569Z,99.90
2022-09-16T22:29:13.859Z,99.90
2022-09-16T22:31:42.889Z,99.90
2022-09-16T22:34:12.762Z,99.90
2022-09-16T22:36:41.013Z,99.90
2022-09-16T22:39:13.125Z,99.90
2022-09-16T22:41:41.683Z,99.90
2022-09-16T22:44:09.894Z,99.90
2022-09-16T22:46:41.789Z,99.90
2022-09-16T22:49:11.147Z,99.90
2022-09-16T22:51:41.335Z,99.90
2022-09-16T22:54:09.752Z,99.90
2022-09-16T22:56:38.071Z,99.90
2022-09-16T22:59:08.390Z,99.90
2022-09-16T23:01:39.146Z,99.90
2022-09-16T23:04:09.194Z,99.90
2022-09-16T23:06:38.917Z,99.90
2022-09-16T23:09:09.603Z,99.90
2022-09-16T23:11:38.040Z,99.90
2022-09-16T23:14:07.333Z,99.90
2022-09-16T23:16:38.231Z,99.90
2022-09-16T23:19:08.743Z,99.90
2022-09-16T23:21:37.572Z,99.90
2022-09-16T23:24:07.382Z,99.90
2022-09-16T23:26:39.010Z,99.90
2022-09-16T23:29:09.211Z,99.90
2022-09-16T23:31:40.378Z,99.90
2022-09-16T23:34:10.840Z,99.90
2022-09-16T23:36:39.771Z,99.90
2022-09-16T23:39:09.195Z,99.90
2022-09-16T23:41:39.023Z,99.90
2022-09-16T23:44:08.181Z,99.90
2022-09-16T23:46:36.637Z,99.90
2022-09-16T23:49:04.879Z,99.90
2022-09-16T23:51:37.630Z,99.90
2022-09-16T23:54:05.884Z,99.90
2022-09-16T23:56:34.195Z,99.90
2022-09-16T23:59:03.620Z,99.90
